createdAt,value
2022-10-28T00:00:54.781Z,17.03
2022-10-28T00:03:24.069Z,17.00
2022-10-28T00:05:54.358Z,16.94
2022-10-28T00:08:22.369Z,16.88
2022-10-28T00:10:50.419Z,16.87
2022-10-28T00:13:18.515Z,16.80
2022-10-28T00:15:46.671Z,16.75
2022-10-28T00:18:15.432Z,16.71
2022-10-28T00:20:44.721Z,16.67
2022-10-28T00:23:12.567Z,16.65
2022-10-28T00:25:40.531Z,16.61
2022-10-28T00:28:08.450Z,16.67
2022-10-28T00:30:36.558Z,16.62
2022-10-28T00:33:04.561Z,16.58
2022-10-28T00:35:32.495Z,16.55
2022-10-28T00:38:01.741Z,16.55
2022-10-28T00:40:34.311Z,16.77
2022-10-28T00:43:02.343Z,16.85
2022-10-28T00:45:30.444Z,16.86
2022-10-28T00:48:01.579Z,16.80
2022-10-28T00:50:35.094Z,16.77
2022-10-28T00:53:07.472Z,16.84
2022-10-28T00:55:36.622Z,16.77
2022-10-28T00:58:06.196Z,16.70
2022-10-28T01:00:34.226Z,16.61
2022-10-28T01:03:02.117Z,16.52
2022-10-28T01:05:32.262Z,16.52
2022-10-28T01:08:01.872Z,16.46
2022-10-28T01:10:37.011Z,16.43
2022-10-28T01:13:11.268Z,16.42
2022-10-28T01:15:43.467Z,16.35
2022-10-28T01:18:17.343Z,16.35
2022-10-28T01:21:03.263Z,16.31
2022-10-28T01:23:36.132Z,16.28
2022-10-28T01:26:24.831Z,16.25
2022-10-28T01:29:03.144Z,16.25
2022-10-28T01:31:37.092Z,16.25
2022-10-28T01:34:09.874Z,16.33
2022-10-28T01:36:39.784Z,16.45
2022-10-28T01:39:13.974Z,16.52
2022-10-28T01:41:49.241Z,16.82
2022-10-28T01:44:23.148Z,17.14
2022-10-28T01:46:57.050Z,17.15
2022-10-28T01:49:28.941Z,17.20
2022-10-28T01:51:59.984Z,17.22
2022-10-28T01:54:31.101Z,17.32
2022-10-28T01:57:00.669Z,17.28
2022-10-28T01:59:29.792Z,17.38
2022-10-28T02:01:59.060Z,17.33
2022-10-28T02:04:27.274Z,17.30
2022-10-28T02:06:56.666Z,17.50
2022-10-28T02:09:34.290Z,17.46
2022-10-28T02:12:16.809Z,17.52
2022-10-28T02:14:53.515Z,17.74
2022-10-28T02:17:27.662Z,17.58
2022-10-28T02:20:02.357Z,17.58
2022-10-28T02:22:33.646Z,17.53
2022-10-28T02:25:06.045Z,17.43
2022-10-28T02:27:35.776Z,17.42
2022-10-28T02:30:06.184Z,17.26
2022-10-28T02:32:38.810Z,17.26
2022-10-28T02:35:08.588Z,17.17
2022-10-28T02:37:52.526Z,17.29
2022-10-28T02:40:22.650Z,17.24
2022-10-28T02:42:51.752Z,17.25
2022-10-28T02:45:22.698Z,17.28
2022-10-28T02:47:53.733Z,17.29
2022-10-28T02:50:25.372Z,17.10
2022-10-28T02:52:56.456Z,17.00
2022-10-28T02:55:25.739Z,16.87
2022-10-28T02:57:54.192Z,16.88
2022-10-28T03:00:24.503Z,16.86
2022-10-28T03:02:53.739Z,16.79
2022-10-28T03:05:21.725Z,16.63
2022-10-28T03:07:49.694Z,16.39
2022-10-28T03:10:17.656Z,16.21
2022-10-28T03:12:45.625Z,16.10
2022-10-28T03:15:13.604Z,16.15
2022-10-28T03:17:41.457Z,16.20
2022-10-28T03:20:11.751Z,16.15
2022-10-28T03:22:39.831Z,16.20
2022-10-28T03:25:07.858Z,16.23
2022-10-28T03:27:35.676Z,16.23
2022-10-28T03:30:03.646Z,16.13
2022-10-28T03:32:31.469Z,15.99
2022-10-28T03:34:59.512Z,15.86
2022-10-28T03:37:28.722Z,15.75
2022-10-28T03:39:56.528Z,15.67
2022-10-28T03:42:24.392Z,15.54
2022-10-28T03:44:52.285Z,15.41
2022-10-28T03:47:20.403Z,15.45
2022-10-28T03:49:48.306Z,15.49
2022-10-28T03:52:16.202Z,15.41
2022-10-28T03:54:45.462Z,15.37
2022-10-28T03:57:13.265Z,15.31
2022-10-28T03:59:41.270Z,15.17
2022-10-28T04:02:09.241Z,15.07
2022-10-28T04:04:37.575Z,14.93
2022-10-28T04:07:05.441Z,14.84
2022-10-28T04:09:33.432Z,14.78
2022-10-28T04:12:02.920Z,14.77
2022-10-28T04:14:31.015Z,14.65
2022-10-28T04:16:58.849Z,14.56
2022-10-28T04:19:26.689Z,14.52
2022-10-28T04:21:54.631Z,14.45
2022-10-28T04:24:22.586Z,14.38
2022-10-28T04:26:50.607Z,14.36
2022-10-28T04:29:20.288Z,14.40
2022-10-28T04:31:51.359Z,14.35
2022-10-28T04:34:20.470Z,14.27
2022-10-28T04:36:48.261Z,14.21
2022-10-28T04:39:16.115Z,14.16
2022-10-28T04:41:44.051Z,14.08
2022-10-28T04:44:12.031Z,14.01
2022-10-28T04:46:41.345Z,13.92
2022-10-28T04:49:09.855Z,13.88
2022-10-28T04:51:37.746Z,13.87
2022-10-28T04:54:05.719Z,13.83
2022-10-28T04:56:33.908Z,13.85
2022-10-28T04:59:02.002Z,13.79
2022-10-28T05:01:29.903Z,13.72
2022-10-28T05:03:59.133Z,13.68
2022-10-28T05:06:27.167Z,13.65
2022-10-28T05:08:55.107Z,13.62
2022-10-28T05:11:23.154Z,13.63
2022-10-28T05:13:53.031Z,13.60
2022-10-28T05:16:20.934Z,13.58
2022-10-28T05:18:49.106Z,13.58
2022-10-28T05:21:18.282Z,13.57
2022-10-28T05:23:47.199Z,13.58
2022-10-28T05:26:15.363Z,13.58
2022-10-28T05:28:43.285Z,13.54
2022-10-28T05:31:11.526Z,13.52
2022-10-28T05:33:39.424Z,13.48
2022-10-28T05:36:07.592Z,13.44
2022-10-28T05:38:37.089Z,13.39
2022-10-28T05:41:04.978Z,13.41
2022-10-28T05:43:42.360Z,13.37
2022-10-28T05:46:14.425Z,13.37
2022-10-28T05:48:47.952Z,13.41
2022-10-28T05:51:28.827Z,13.38
2022-10-28T05:54:02.864Z,13.40
2022-10-28T05:56:34.722Z,13.38
2022-10-28T05:59:06.874Z,13.39
2022-10-28T06:01:35.039Z,13.41
2022-10-28T06:04:06.417Z,13.44
2022-10-28T06:06:37.994Z,13.48
2022-10-28T06:09:09.444Z,13.48
2022-10-28T06:11:37.553Z,13.43
2022-10-28T06:14:07.813Z,13.42
2022-10-28T06:16:45.791Z,13.47
2022-10-28T06:19:21.655Z,13.50
2022-10-28T06:21:51.981Z,13.51
2022-10-28T06:24:21.602Z,13.51
2022-10-28T06:26:49.941Z,13.54
2022-10-28T06:29:18.940Z,13.60
2022-10-28T06:31:47.030Z,13.67
2022-10-28T06:34:14.965Z,13.75
2022-10-28T06:36:46.203Z,13.88
2022-10-28T06:39:14.285Z,14.01
2022-10-28T06:41:43.746Z,14.15
2022-10-28T06:44:16.640Z,14.34
2022-10-28T06:46:46.473Z,14.49
2022-10-28T06:49:14.821Z,14.68
2022-10-28T06:51:42.783Z,14.96
2022-10-28T06:54:11.102Z,15.56
2022-10-28T06:56:41.406Z,16.22
2022-10-28T06:59:13.982Z,16.58
2022-10-28T07:01:43.071Z,16.63
2022-10-28T07:04:13.806Z,16.55
2022-10-28T07:06:42.778Z,16.41
2022-10-28T07:09:12.428Z,16.30
2022-10-28T07:11:40.334Z,16.21
2022-10-28T07:14:08.712Z,16.10
2022-10-28T07:16:37.875Z,16.09
2022-10-28T07:19:05.912Z,16.17
2022-10-28T07:21:33.892Z,16.28
2022-10-28T07:24:02.072Z,16.45
2022-10-28T07:26:31.436Z,16.66
2022-10-28T07:29:00.023Z,17.14
2022-10-28T07:31:28.486Z,18.55
2022-10-28T07:33:58.048Z,20.06
2022-10-28T07:36:35.139Z,21.63
2022-10-28T07:39:08.960Z,22.95
2022-10-28T07:41:38.162Z,24.19
2022-10-28T07:44:06.778Z,24.94
2022-10-28T07:46:35.125Z,25.34
2022-10-28T07:49:04.508Z,25.73
2022-10-28T07:51:32.575Z,26.25
2022-10-28T07:54:00.671Z,26.46
2022-10-28T07:56:28.810Z,26.69
2022-10-28T07:58:58.799Z,26.68
2022-10-28T08:01:27.107Z,26.80
2022-10-28T08:03:55.430Z,27.16
2022-10-28T08:06:27.494Z,26.57
2022-10-28T08:08:56.738Z,25.66
2022-10-28T08:11:24.810Z,24.52
2022-10-28T08:13:53.023Z,23.60
2022-10-28T08:16:20.874Z,22.88
2022-10-28T08:18:48.738Z,22.45
2022-10-28T08:21:17.065Z,22.12
2022-10-28T08:23:46.903Z,21.94
2022-10-28T08:26:15.370Z,21.91
2022-10-28T08:28:45.146Z,22.03
2022-10-28T08:31:13.307Z,22.16
2022-10-28T08:33:44.803Z,22.25
2022-10-28T08:36:13.571Z,22.54
2022-10-28T08:38:45.349Z,23.30
2022-10-28T08:41:23.706Z,24.91
2022-10-28T08:44:00.292Z,26.90
2022-10-28T08:46:37.803Z,28.12
2022-10-28T08:49:12.863Z,29.02
2022-10-28T08:51:43.663Z,29.48
2022-10-28T08:54:15.067Z,29.86
2022-10-28T08:56:46.248Z,29.49
2022-10-28T08:59:16.309Z,29.55
2022-10-28T09:01:48.285Z,30.23
2022-10-28T09:04:21.168Z,30.81
2022-10-28T09:06:49.417Z,30.39
2022-10-28T09:09:19.859Z,31.49
2022-10-28T09:12:04.233Z,31.92
2022-10-28T09:14:51.191Z,31.84
2022-10-28T09:17:20.302Z,32.38
2022-10-28T09:19:50.392Z,32.32
2022-10-28T09:22:22.859Z,33.10
2022-10-28T09:24:52.807Z,32.44
2022-10-28T09:27:30.249Z,32.45
2022-10-28T09:30:06.197Z,32.60
2022-10-28T09:32:46.369Z,33.26
2022-10-28T09:35:16.282Z,33.69
2022-10-28T09:37:47.243Z,33.22
2022-10-28T09:40:18.009Z,33.73
2022-10-28T09:42:50.253Z,34.27
2022-10-28T09:45:22.401Z,36.32
2022-10-28T09:47:54.772Z,37.82
2022-10-28T09:50:25.549Z,38.07
2022-10-28T09:52:57.819Z,38.94
2022-10-28T09:55:31.072Z,37.94
2022-10-28T09:58:01.798Z,37.75
2022-10-28T10:00:35.008Z,37.81
2022-10-28T10:03:04.305Z,38.53
2022-10-28T10:05:34.317Z,37.42
2022-10-28T10:08:04.596Z,35.67
2022-10-28T10:10:36.998Z,35.34
2022-10-28T10:13:07.371Z,32.75
2022-10-28T10:15:37.846Z,30.67
2022-10-28T10:18:07.043Z,30.05
2022-10-28T10:20:47.497Z,30.53
2022-10-28T10:23:23.643Z,31.34
2022-10-28T10:25:55.474Z,32.54
2022-10-28T10:28:26.469Z,31.60
2022-10-28T10:30:56.744Z,33.86
2022-10-28T10:33:26.073Z,31.14
2022-10-28T10:35:59.149Z,29.51
2022-10-28T10:38:29.183Z,29.06
2022-10-28T10:40:57.489Z,28.54
2022-10-28T10:43:32.261Z,29.45
2022-10-28T10:46:02.106Z,30.58
2022-10-28T10:48:30.294Z,31.73
2022-10-28T10:50:58.246Z,32.04
2022-10-28T10:53:26.872Z,31.33
2022-10-28T10:55:56.989Z,31.05
2022-10-28T10:58:26.129Z,29.49
2022-10-28T11:00:56.306Z,28.12
2022-10-28T11:03:26.870Z,27.09
2022-10-28T11:06:18.220Z,26.59
2022-10-28T11:08:44.349Z,27.28
2022-10-28T11:11:14.090Z,27.65
2022-10-28T11:13:46.039Z,28.31
2022-10-28T11:16:20.340Z,29.00
2022-10-28T11:18:49.142Z,29.51
2022-10-28T11:21:26.402Z,30.54
2022-10-28T11:24:02.266Z,29.90
2022-10-28T11:26:33.359Z,28.84
2022-10-28T11:29:07.425Z,27.69
2022-10-28T11:31:46.183Z,28.07
2022-10-28T11:34:22.312Z,29.32
2022-10-28T11:36:57.823Z,30.99
2022-10-28T11:39:27.407Z,30.71
2022-10-28T11:42:01.821Z,30.92
2022-10-28T11:44:34.931Z,30.63
2022-10-28T11:47:12.648Z,29.95
2022-10-28T11:50:02.647Z,30.21
2022-10-28T11:52:42.698Z,31.33
2022-10-28T11:55:17.179Z,29.81
2022-10-28T11:57:52.176Z,29.20
2022-10-28T12:00:28.027Z,28.77
2022-10-28T12:03:05.763Z,28.84
2022-10-28T12:05:39.251Z,29.82
2022-10-28T12:08:14.458Z,31.72
2022-10-28T12:10:48.894Z,33.28
2022-10-28T12:13:25.127Z,32.62
2022-10-28T12:15:56.397Z,33.38
2022-10-28T12:18:29.340Z,32.20
2022-10-28T12:21:00.636Z,33.07
2022-10-28T12:23:30.474Z,33.10
2022-10-28T12:26:00.192Z,33.47
2022-10-28T12:28:31.620Z,34.26
2022-10-28T12:31:00.136Z,34.53
2022-10-28T12:33:33.965Z,35.01
2022-10-28T12:36:18.019Z,32.74
2022-10-28T12:38:49.043Z,31.23
2022-10-28T12:41:18.648Z,30.70
2022-10-28T12:43:49.897Z,30.29
2022-10-28T12:46:23.525Z,30.13
2022-10-28T12:48:56.517Z,29.92
2022-10-28T12:51:28.953Z,29.56
2022-10-28T12:53:59.442Z,29.01
2022-10-28T12:56:40.819Z,30.01
2022-10-28T12:59:12.886Z,30.92
2022-10-28T13:01:42.243Z,30.53
2022-10-28T13:04:18.122Z,29.80
2022-10-28T13:06:59.110Z,29.28
2022-10-28T13:09:45.405Z,29.65
2022-10-28T13:12:26.974Z,28.34
2022-10-28T13:17:48.972Z,29.25
2022-10-28T13:20:25.242Z,29.18
2022-10-28T13:23:01.088Z,28.81
2022-10-28T13:25:39.507Z,27.46
2022-10-28T13:28:13.455Z,26.99
2022-10-28T13:30:54.639Z,26.55
2022-10-28T13:33:25.057Z,26.71
2022-10-28T13:35:55.344Z,26.59
2022-10-28T13:38:25.856Z,26.67
2022-10-28T13:41:12.982Z,26.07
2022-10-28T13:44:03.036Z,26.10
2022-10-28T13:46:49.598Z,26.36
2022-10-28T13:49:23.983Z,26.38
2022-10-28T13:52:00.424Z,26.49
2022-10-28T13:54:31.459Z,26.53
2022-10-28T13:57:05.495Z,26.46
2022-10-28T13:59:52.186Z,26.73
2022-10-28T14:02:39.241Z,26.75
2022-10-28T14:05:08.589Z,27.40
2022-10-28T14:07:39.456Z,27.55
2022-10-28T14:10:20.270Z,27.18
2022-10-28T14:12:51.027Z,27.07
2022-10-28T14:15:20.548Z,26.76
2022-10-28T14:17:50.475Z,26.23
2022-10-28T14:20:25.113Z,25.67
2022-10-28T14:22:54.784Z,25.30
2022-10-28T14:25:44.238Z,25.31
2022-10-28T14:28:27.282Z,25.58
2022-10-28T14:31:10.359Z,25.70
2022-10-28T14:33:39.708Z,25.52
2022-10-28T14:36:15.120Z,25.40
2022-10-28T14:39:03.840Z,25.24
2022-10-28T14:41:39.141Z,25.24
2022-10-28T14:44:17.212Z,24.98
2022-10-28T14:46:51.674Z,24.75
2022-10-28T14:49:22.407Z,24.55
2022-10-28T14:51:50.902Z,24.33
2022-10-28T14:54:40.621Z,24.18
2022-10-28T14:57:09.065Z,23.95
2022-10-28T14:59:38.638Z,23.93
2022-10-28T15:02:12.353Z,23.81
2022-10-28T15:04:41.294Z,23.78
2022-10-28T15:07:12.229Z,23.70
2022-10-28T15:09:43.358Z,23.59
2022-10-28T15:12:12.817Z,23.62
2022-10-28T15:14:41.433Z,23.48
2022-10-28T15:17:16.538Z,23.42
2022-10-28T15:19:45.735Z,23.25
2022-10-28T15:22:18.520Z,23.15
2022-10-28T15:24:58.142Z,23.04
2022-10-28T15:27:27.224Z,23.02
2022-10-28T15:29:55.821Z,22.91
2022-10-28T15:32:28.064Z,22.90
2022-10-28T15:34:56.226Z,22.84
2022-10-28T15:37:25.383Z,22.61
2022-10-28T15:40:00.327Z,22.38
2022-10-28T15:42:40.156Z,22.33
2022-10-28T15:45:16.794Z,22.17
2022-10-28T15:47:45.972Z,22.04
2022-10-28T15:50:22.389Z,21.91
2022-10-28T15:52:52.354Z,21.82
2022-10-28T15:55:41.089Z,21.71
2022-10-28T15:58:34.057Z,21.58
2022-10-28T16:01:02.188Z,21.57
2022-10-28T16:03:41.633Z,21.29
2022-10-28T16:06:21.313Z,21.16
2022-10-28T16:08:58.850Z,21.21
2022-10-28T16:11:27.097Z,21.23
2022-10-28T16:13:56.422Z,21.15
2022-10-28T16:16:25.827Z,21.03
2022-10-28T16:19:03.207Z,21.01
2022-10-28T16:21:32.210Z,20.95
2022-10-28T16:24:00.098Z,20.78
2022-10-28T16:26:28.195Z,20.69
2022-10-28T16:28:57.836Z,20.87
2022-10-28T16:31:28.317Z,20.88
2022-10-28T16:33:56.347Z,20.81
2022-10-28T16:36:24.238Z,20.66
2022-10-28T16:38:52.095Z,20.67
2022-10-28T16:41:20.278Z,20.68
2022-10-28T16:43:49.252Z,20.70
2022-10-28T16:46:18.848Z,20.66
2022-10-28T16:48:46.721Z,20.55
2022-10-28T16:51:16.099Z,20.53
2022-10-28T16:53:47.073Z,20.44
2022-10-28T16:56:15.327Z,20.34
2022-10-28T16:58:44.577Z,20.29
2022-10-28T17:01:12.675Z,20.36
2022-10-28T17:03:41.929Z,20.26
2022-10-28T17:06:10.361Z,20.13
2022-10-28T17:11:26.611Z,19.97
2022-10-28T17:13:54.513Z,19.87
2022-10-28T17:16:22.434Z,19.92
2022-10-28T17:18:51.708Z,19.74
2022-10-28T17:21:19.651Z,19.62
2022-10-28T17:23:47.769Z,19.67
2022-10-28T17:26:16.225Z,19.60
2022-10-28T17:28:51.400Z,19.68
2022-10-28T17:31:23.903Z,19.65
2022-10-28T17:33:55.604Z,19.53
2022-10-28T17:36:24.187Z,19.38
2022-10-28T17:38:52.271Z,19.36
2022-10-28T17:41:20.467Z,19.24
2022-10-28T17:43:48.390Z,19.26
2022-10-28T17:46:16.462Z,19.09
2022-10-28T17:48:44.289Z,19.00
2022-10-28T17:51:13.698Z,19.01
2022-10-28T17:53:41.627Z,18.85
2022-10-28T17:56:10.101Z,18.78
2022-10-28T17:58:38.307Z,18.70
2022-10-28T18:01:07.315Z,18.57
2022-10-28T18:03:38.363Z,18.42
2022-10-28T18:06:08.006Z,18.30
2022-10-28T18:08:38.300Z,18.18
2022-10-28T18:11:06.981Z,18.13
2022-10-28T18:13:35.653Z,18.30
2022-10-28T18:16:07.284Z,18.40
2022-10-28T18:18:40.986Z,18.36
2022-10-28T18:21:11.426Z,18.26
2022-10-28T18:23:41.068Z,18.19
2022-10-28T18:26:11.666Z,18.11
2022-10-28T18:28:40.073Z,18.05
2022-10-28T18:31:11.720Z,17.99
2022-10-28T18:33:40.264Z,17.91
2022-10-28T18:36:09.199Z,17.79
2022-10-28T18:38:37.880Z,17.76
2022-10-28T18:41:09.591Z,17.74
2022-10-28T18:43:37.720Z,17.77
2022-10-28T18:46:05.784Z,17.91
2022-10-28T18:48:33.815Z,17.84
2022-10-28T18:51:02.643Z,17.75
2022-10-28T18:53:30.513Z,17.67
2022-10-28T18:56:01.055Z,17.65
2022-10-28T18:58:30.782Z,17.77
2022-10-28T19:01:04.240Z,17.74
2022-10-28T19:03:32.444Z,17.69
2022-10-28T19:06:04.379Z,17.63
2022-10-28T19:08:32.670Z,17.65
2022-10-28T19:11:01.354Z,17.83
2022-10-28T19:13:33.054Z,17.72
2022-10-28T19:16:01.183Z,17.58
2022-10-28T19:18:29.520Z,17.52
2022-10-28T19:21:04.975Z,17.53
2022-10-28T19:23:33.406Z,17.55
2022-10-28T19:26:01.541Z,17.53
2022-10-28T19:28:31.395Z,17.55
2022-10-28T19:31:03.035Z,17.58
2022-10-28T19:33:32.415Z,17.49
2022-10-28T19:36:03.931Z,17.49
2022-10-28T19:38:32.722Z,17.47
2022-10-28T19:41:04.552Z,17.47
2022-10-28T19:43:37.484Z,17.35
2022-10-28T19:46:07.049Z,17.23
2022-10-28T19:48:38.770Z,17.21
2022-10-28T19:51:11.021Z,17.17
2022-10-28T19:53:40.154Z,17.16
2022-10-28T19:56:11.140Z,17.18
2022-10-28T19:58:40.358Z,17.20
2022-10-28T20:01:09.054Z,17.21
2022-10-28T20:03:39.247Z,17.28
2022-10-28T20:06:08.456Z,17.42
2022-10-28T20:08:38.901Z,17.43
2022-10-28T20:11:07.927Z,17.59
2022-10-28T20:13:36.296Z,17.55
2022-10-28T20:16:06.674Z,17.52
2022-10-28T20:18:35.268Z,17.50
2022-10-28T20:21:04.394Z,17.54
2022-10-28T20:23:33.398Z,17.57
2022-10-28T20:26:04.941Z,17.57
2022-10-28T20:28:33.751Z,17.64
2022-10-28T20:31:03.196Z,17.58
2022-10-28T20:33:34.041Z,17.60
2022-10-28T20:36:02.896Z,17.56
2022-10-28T20:38:34.528Z,17.56
2022-10-28T20:41:03.624Z,17.51
2022-10-28T20:43:32.839Z,17.45
2022-10-28T20:46:02.570Z,17.35
2022-10-28T20:48:34.398Z,17.22
2022-10-28T20:51:06.480Z,17.11
2022-10-28T20:53:35.464Z,17.12
2022-10-28T20:56:04.251Z,17.04
2022-10-28T20:58:33.636Z,16.94
2022-10-28T21:01:07.398Z,16.92
2022-10-28T21:03:45.521Z,16.84
2022-10-28T21:06:16.285Z,16.78
2022-10-28T21:08:46.265Z,16.66
2022-10-28T21:11:17.871Z,16.58
2022-10-28T21:13:51.831Z,16.50
2022-10-28T21:16:24.285Z,16.49
2022-10-28T21:18:54.033Z,16.52
2022-10-28T21:21:23.052Z,16.46
2022-10-28T21:23:51.000Z,16.46
2022-10-28T21:26:18.900Z,16.49
2022-10-28T21:28:49.298Z,16.46
2022-10-28T21:31:18.000Z,16.42
2022-10-28T21:33:46.445Z,16.33
2022-10-28T21:36:22.619Z,16.29
2022-10-28T21:38:53.353Z,16.25
2022-10-28T21:41:25.441Z,16.28
2022-10-28T21:43:56.483Z,16.22
2022-10-28T21:46:25.860Z,16.24
2022-10-28T21:48:56.002Z,16.34
2022-10-28T21:51:25.974Z,16.50
2022-10-28T21:53:54.520Z,16.63
2022-10-28T21:56:22.604Z,16.70
2022-10-28T21:58:51.101Z,16.73
2022-10-28T22:01:20.364Z,16.78
2022-10-28T22:03:48.776Z,16.89
2022-10-28T22:06:16.904Z,16.98
2022-10-28T22:08:46.730Z,17.02
2022-10-28T22:11:15.774Z,16.98
2022-10-28T22:13:44.055Z,16.90
2022-10-28T22:16:13.034Z,16.76
2022-10-28T22:18:41.007Z,16.61
2022-10-28T22:21:13.879Z,16.48
2022-10-28T22:23:41.733Z,16.43
2022-10-28T22:26:11.669Z,16.42
2022-10-28T22:28:40.020Z,16.37
2022-10-28T22:31:12.334Z,16.35
2022-10-28T22:33:40.705Z,16.35
2022-10-28T22:36:09.760Z,16.36
2022-10-28T22:38:38.003Z,16.36
2022-10-28T22:41:07.599Z,16.33
2022-10-28T22:43:37.120Z,16.34
2022-10-28T22:46:05.210Z,16.37
2022-10-28T22:48:33.507Z,16.41
2022-10-28T22:51:01.739Z,16.45
2022-10-28T22:53:29.983Z,16.45
2022-10-28T22:55:58.276Z,16.42
2022-10-28T22:58:27.434Z,16.39
2022-10-28T23:01:04.877Z,16.41
2022-10-28T23:03:35.572Z,16.38
2022-10-28T23:06:03.618Z,16.36
2022-10-28T23:08:31.704Z,16.33
2022-10-28T23:11:00.119Z,16.28
2022-10-28T23:13:28.400Z,16.23
2022-10-28T23:15:58.279Z,16.20
2022-10-28T23:18:27.035Z,16.15
2022-10-28T23:20:55.002Z,16.11
2022-10-28T23:23:22.926Z,16.07
2022-10-28T23:25:54.350Z,16.06
2022-10-28T23:28:22.565Z,16.05
2022-10-28T23:30:50.364Z,16.05
2022-10-28T23:33:19.548Z,15.98
2022-10-28T23:35:54.201Z,15.92
2022-10-28T23:38:22.317Z,15.79
2022-10-28T23:40:56.841Z,15.75
2022-10-28T23:43:24.934Z,15.72
2022-10-28T23:45:53.532Z,15.76
2022-10-28T23:48:23.160Z,15.69
2022-10-28T23:50:51.073Z,15.73
2022-10-28T23:53:19.360Z,15.75
2022-10-28T23:55:48.419Z,15.79
2022-10-28T23:58:17.127Z,15.89
